sensor_id;sensor_type;location;lat;lon;timestamp;temperature;humidity
10121;DHT22;5100;45.176;5.714;2023-05-02T00:02:09;17.20;69.90
10121;DHT22;5100;45.176;5.714;2023-05-02T00:04:36;17.20;70.20
10121;DHT22;5100;45.176;5.714;2023-05-02T00:07:02;17.20;70.50
10121;DHT22;5100;45.176;5.714;2023-05-02T00:09:29;17.20;70.40
10121;DHT22;5100;45.176;5.714;2023-05-02T00:11:55;17.20;70.40
10121;DHT22;5100;45.176;5.714;2023-05-02T00:14:21;17.20;70.40
10121;DHT22;5100;45.176;5.714;2023-05-02T00:16:47;17.20;70.60
10121;DHT22;5100;45.176;5.714;2023-05-02T00:19:13;17.20;70.90
10121;DHT22;5100;45.176;5.714;2023-05-02T00:21:39;17.20;71.60
10121;DHT22;5100;45.176;5.714;2023-05-02T00:24:05;17.20;72.00
10121;DHT22;5100;45.176;5.714;2023-05-02T00:26:31;17.20;72.10
10121;DHT22;5100;45.176;5.714;2023-05-02T00:28:57;17.20;72.30
10121;DHT22;5100;45.176;5.714;2023-05-02T00:31:24;17.20;72.30
10121;DHT22;5100;45.176;5.714;2023-05-02T00:33:50;17.20;71.90
10121;DHT22;5100;45.176;5.714;2023-05-02T00:36:18;17.20;71.80
10121;DHT22;5100;45.176;5.714;2023-05-02T00:38:44;17.20;71.80
10121;DHT22;5100;45.176;5.714;2023-05-02T00:41:11;17.20;71.80
10121;DHT22;5100;45.176;5.714;2023-05-02T00:43:37;17.20;71.90
10121;DHT22;5100;45.176;5.714;2023-05-02T00:46:06;17.20;71.90
10121;DHT22;5100;45.176;5.714;2023-05-02T00:48:33;17.20;71.70
10121;DHT22;5100;45.176;5.714;2023-05-02T00:51:02;17.10;71.80
10121;DHT22;5100;45.176;5.714;2023-05-02T00:53:30;17.10;71.90
10121;DHT22;5100;45.176;5.714;2023-05-02T00:56:01;17.10;72.00
10121;DHT22;5100;45.176;5.714;2023-05-02T00:58:27;17.10;72.00
10121;DHT22;5100;45.176;5.714;2023-05-02T01:01:21;17.10;71.80
10121;DHT22;5100;45.176;5.714;2023-05-02T01:04:08;17.10;71.80
10121;DHT22;5100;45.176;5.714;2023-05-02T01:14:53;17.10;71.80
10121;DHT22;5100;45.176;5.714;2023-05-02T01:17:23;17.00;71.60
10121;DHT22;5100;45.176;5.714;2023-05-02T01:19:59;17.00;71.60
10121;DHT22;5100;45.176;5.714;2023-05-02T01:22:28;17.00;71.50
10121;DHT22;5100;45.176;5.714;2023-05-02T01:29:52;17.00;71.40
10121;DHT22;5100;45.176;5.714;2023-05-02T01:32:21;17.00;71.40
10121;DHT22;5100;45.176;5.714;2023-05-02T01:34:49;17.00;71.50
10121;DHT22;5100;45.176;5.714;2023-05-02T01:37:17;17.00;71.20
10121;DHT22;5100;45.176;5.714;2023-05-02T01:39:44;17.00;71.20
10121;DHT22;5100;45.176;5.714;2023-05-02T01:42:12;17.00;70.50
10121;DHT22;5100;45.176;5.714;2023-05-02T01:44:41;17.00;69.80
10121;DHT22;5100;45.176;5.714;2023-05-02T01:47:08;16.90;69.50
10121;DHT22;5100;45.176;5.714;2023-05-02T01:49:35;16.90;69.50
10121;DHT22;5100;45.176;5.714;2023-05-02T01:52:04;16.90;69.70
10121;DHT22;5100;45.176;5.714;2023-05-02T01:54:34;16.90;69.90
10121;DHT22;5100;45.176;5.714;2023-05-02T01:57:04;16.90;70.30
10121;DHT22;5100;45.176;5.714;2023-05-02T01:59:32;16.90;70.60
10121;DHT22;5100;45.176;5.714;2023-05-02T02:02:01;16.90;70.80
10121;DHT22;5100;45.176;5.714;2023-05-02T02:04:28;16.90;70.80
10121;DHT22;5100;45.176;5.714;2023-05-02T02:07:00;16.90;71.00
10121;DHT22;5100;45.176;5.714;2023-05-02T02:09:27;16.90;71.00
10121;DHT22;5100;45.176;5.714;2023-05-02T02:15:17;16.80;70.40
10121;DHT22;5100;45.176;5.714;2023-05-02T02:17:48;16.80;70.30
10121;DHT22;5100;45.176;5.714;2023-05-02T02:20:18;16.80;70.00
10121;DHT22;5100;45.176;5.714;2023-05-02T02:22:46;16.80;69.60
10121;DHT22;5100;45.176;5.714;2023-05-02T02:25:16;16.80;69.40
10121;DHT22;5100;45.176;5.714;2023-05-02T02:27:43;16.80;68.90
10121;DHT22;5100;45.176;5.714;2023-05-02T02:30:10;16.80;68.50
10121;DHT22;5100;45.176;5.714;2023-05-02T02:32:37;16.80;67.90
10121;DHT22;5100;45.176;5.714;2023-05-02T02:35:03;16.80;67.80
10121;DHT22;5100;45.176;5.714;2023-05-02T02:37:32;16.80;67.60
10121;DHT22;5100;45.176;5.714;2023-05-02T02:40:04;16.80;67.50
10121;DHT22;5100;45.176;5.714;2023-05-02T02:42:59;16.80;67.50
10121;DHT22;5100;45.176;5.714;2023-05-02T02:45:36;16.80;67.50
10121;DHT22;5100;45.176;5.714;2023-05-02T02:48:09;16.70;67.70
10121;DHT22;5100;45.176;5.714;2023-05-02T02:53:18;16.70;67.50
10121;DHT22;5100;45.176;5.714;2023-05-02T02:56:03;16.70;67.30
10121;DHT22;5100;45.176;5.714;2023-05-02T02:58:42;16.70;67.20
10121;DHT22;5100;45.176;5.714;2023-05-02T03:01:14;16.70;67.50
10121;DHT22;5100;45.176;5.714;2023-05-02T03:03:43;16.70;68.00
10121;DHT22;5100;45.176;5.714;2023-05-02T03:06:10;16.70;68.30
10121;DHT22;5100;45.176;5.714;2023-05-02T03:08:40;16.70;67.70
10121;DHT22;5100;45.176;5.714;2023-05-02T03:11:08;16.70;67.50
10121;DHT22;5100;45.176;5.714;2023-05-02T03:13:35;16.70;67.40
10121;DHT22;5100;45.176;5.714;2023-05-02T03:18:58;16.70;67.30
10121;DHT22;5100;45.176;5.714;2023-05-02T03:21:24;16.60;67.40
10121;DHT22;5100;45.176;5.714;2023-05-02T03:23:51;16.60;67.30
10121;DHT22;5100;45.176;5.714;2023-05-02T03:26:18;16.60;67.40
10121;DHT22;5100;45.176;5.714;2023-05-02T03:28:44;16.60;67.30
10121;DHT22;5100;45.176;5.714;2023-05-02T03:31:15;16.60;67.10
10121;DHT22;5100;45.176;5.714;2023-05-02T03:33:41;16.60;67.10
10121;DHT22;5100;45.176;5.714;2023-05-02T03:36:08;16.60;67.00
10121;DHT22;5100;45.176;5.714;2023-05-02T03:38:34;16.60;67.00
10121;DHT22;5100;45.176;5.714;2023-05-02T03:41:02;16.60;67.00
10121;DHT22;5100;45.176;5.714;2023-05-02T03:43:30;16.60;66.90
10121;DHT22;5100;45.176;5.714;2023-05-02T03:45:56;16.60;66.80
10121;DHT22;5100;45.176;5.714;2023-05-02T03:48:24;16.60;66.80
10121;DHT22;5100;45.176;5.714;2023-05-02T03:50:51;16.60;66.90
10121;DHT22;5100;45.176;5.714;2023-05-02T03:53:17;16.50;66.90
10121;DHT22;5100;45.176;5.714;2023-05-02T03:55:44;16.50;66.70
10121;DHT22;5100;45.176;5.714;2023-05-02T03:58:12;16.50;66.70
10121;DHT22;5100;45.176;5.714;2023-05-02T04:00:38;16.50;66.60
10121;DHT22;5100;45.176;5.714;2023-05-02T04:03:06;16.50;66.70
10121;DHT22;5100;45.176;5.714;2023-05-02T04:05:33;16.50;66.60
10121;DHT22;5100;45.176;5.714;2023-05-02T04:08:00;16.50;66.50
10121;DHT22;5100;45.176;5.714;2023-05-02T04:10:26;16.50;66.50
10121;DHT22;5100;45.176;5.714;2023-05-02T04:12:53;16.50;66.50
10121;DHT22;5100;45.176;5.714;2023-05-02T04:15:19;16.40;66.60
10121;DHT22;5100;45.176;5.714;2023-05-02T04:17:46;16.40;66.50
10121;DHT22;5100;45.176;5.714;2023-05-02T04:20:13;16.40;66.60
10121;DHT22;5100;45.176;5.714;2023-05-02T04:22:41;16.40;66.60
10121;DHT22;5100;45.176;5.714;2023-05-02T04:25:08;16.40;66.20
10121;DHT22;5100;45.176;5.714;2023-05-02T04:27:34;16.40;66.40
10121;DHT22;5100;45.176;5.714;2023-05-02T04:30:01;16.40;66.50
10121;DHT22;5100;45.176;5.714;2023-05-02T04:32:27;16.40;66.50
10121;DHT22;5100;45.176;5.714;2023-05-02T04:34:54;16.40;66.50
10121;DHT22;5100;45.176;5.714;2023-05-02T04:37:21;16.40;66.00
10121;DHT22;5100;45.176;5.714;2023-05-02T04:39:48;16.40;66.10
10121;DHT22;5100;45.176;5.714;2023-05-02T04:42:14;16.40;66.10
10121;DHT22;5100;45.176;5.714;2023-05-02T04:44:41;16.40;66.20
10121;DHT22;5100;45.176;5.714;2023-05-02T04:47:08;16.40;66.30
10121;DHT22;5100;45.176;5.714;2023-05-02T04:49:34;16.40;66.30
10121;DHT22;5100;45.176;5.714;2023-05-02T04:52:01;16.40;66.30
10121;DHT22;5100;45.176;5.714;2023-05-02T04:54:27;16.40;66.20
10121;DHT22;5100;45.176;5.714;2023-05-02T04:56:53;16.40;66.00
10121;DHT22;5100;45.176;5.714;2023-05-02T04:59:20;16.40;66.10
10121;DHT22;5100;45.176;5.714;2023-05-02T05:01:47;16.40;66.10
10121;DHT22;5100;45.176;5.714;2023-05-02T05:04:13;16.30;66.30
10121;DHT22;5100;45.176;5.714;2023-05-02T05:06:40;16.30;66.20
10121;DHT22;5100;45.176;5.714;2023-05-02T05:09:07;16.30;66.30
10121;DHT22;5100;45.176;5.714;2023-05-02T05:11:34;16.30;66.30
10121;DHT22;5100;45.176;5.714;2023-05-02T05:14:01;16.30;66.20
10121;DHT22;5100;45.176;5.714;2023-05-02T05:16:30;16.30;66.20
10121;DHT22;5100;45.176;5.714;2023-05-02T05:18:57;16.30;66.10
10121;DHT22;5100;45.176;5.714;2023-05-02T05:21:23;16.30;66.20
10121;DHT22;5100;45.176;5.714;2023-05-02T05:23:50;16.30;66.20
10121;DHT22;5100;45.176;5.714;2023-05-02T05:26:16;16.30;66.30
10121;DHT22;5100;45.176;5.714;2023-05-02T05:28:44;16.30;66.30
10121;DHT22;5100;45.176;5.714;2023-05-02T05:31:12;16.30;66.20
10121;DHT22;5100;45.176;5.714;2023-05-02T05:33:44;16.30;66.10
10121;DHT22;5100;45.176;5.714;2023-05-02T05:36:12;16.40;65.90
10121;DHT22;5100;45.176;5.714;2023-05-02T05:38:40;16.40;66.00
10121;DHT22;5100;45.176;5.714;2023-05-02T05:41:07;16.40;66.00
10121;DHT22;5100;45.176;5.714;2023-05-02T05:43:35;16.50;65.80
10121;DHT22;5100;45.176;5.714;2023-05-02T05:46:02;16.50;65.70
10121;DHT22;5100;45.176;5.714;2023-05-02T05:48:29;16.60;65.40
10121;DHT22;5100;45.176;5.714;2023-05-02T05:50:56;16.70;65.40
10121;DHT22;5100;45.176;5.714;2023-05-02T05:53:22;16.80;65.00
10121;DHT22;5100;45.176;5.714;2023-05-02T05:55:49;16.90;64.90
10121;DHT22;5100;45.176;5.714;2023-05-02T05:58:18;17.00;64.90
10121;DHT22;5100;45.176;5.714;2023-05-02T06:00:44;17.10;64.40
10121;DHT22;5100;45.176;5.714;2023-05-02T06:03:10;17.20;64.10
10121;DHT22;5100;45.176;5.714;2023-05-02T06:05:37;17.30;63.70
10121;DHT22;5100;45.176;5.714;2023-05-02T06:08:03;17.40;63.40
10121;DHT22;5100;45.176;5.714;2023-05-02T06:10:31;17.50;63.20
10121;DHT22;5100;45.176;5.714;2023-05-02T06:12:57;17.60;63.00
10121;DHT22;5100;45.176;5.714;2023-05-02T06:15:24;17.70;62.90
10121;DHT22;5100;45.176;5.714;2023-05-02T06:17:50;17.80;62.40
10121;DHT22;5100;45.176;5.714;2023-05-02T06:20:17;17.90;62.10
10121;DHT22;5100;45.176;5.714;2023-05-02T06:22:43;18.00;62.10
10121;DHT22;5100;45.176;5.714;2023-05-02T06:25:09;18.00;61.90
10121;DHT22;5100;45.176;5.714;2023-05-02T06:27:35;18.10;61.80
10121;DHT22;5100;45.176;5.714;2023-05-02T06:30:01;18.20;61.80
10121;DHT22;5100;45.176;5.714;2023-05-02T06:32:30;18.20;61.80
10121;DHT22;5100;45.176;5.714;2023-05-02T06:34:56;18.30;61.90
10121;DHT22;5100;45.176;5.714;2023-05-02T06:37:22;18.30;61.90
10121;DHT22;5100;45.176;5.714;2023-05-02T06:39:49;18.30;61.50
10121;DHT22;5100;45.176;5.714;2023-05-02T06:42:15;18.30;61.40
10121;DHT22;5100;45.176;5.714;2023-05-02T06:44:41;18.40;61.40
10121;DHT22;5100;45.176;5.714;2023-05-02T06:47:07;18.40;61.30
10121;DHT22;5100;45.176;5.714;2023-05-02T06:49:33;18.40;61.30
10121;DHT22;5100;45.176;5.714;2023-05-02T06:51:59;18.40;61.30
10121;DHT22;5100;45.176;5.714;2023-05-02T06:54:25;18.40;61.00
10121;DHT22;5100;45.176;5.714;2023-05-02T06:56:51;18.50;60.80
10121;DHT22;5100;45.176;5.714;2023-05-02T06:59:18;18.50;60.90
10121;DHT22;5100;45.176;5.714;2023-05-02T07:01:45;18.50;60.90
10121;DHT22;5100;45.176;5.714;2023-05-02T07:04:11;18.50;61.20
10121;DHT22;5100;45.176;5.714;2023-05-02T07:06:37;18.50;60.80
10121;DHT22;5100;45.176;5.714;2023-05-02T07:09:03;18.50;61.10
10121;DHT22;5100;45.176;5.714;2023-05-02T07:11:29;18.50;61.00
10121;DHT22;5100;45.176;5.714;2023-05-02T07:13:55;18.50;61.10
10121;DHT22;5100;45.176;5.714;2023-05-02T07:16:21;18.50;61.10
10121;DHT22;5100;45.176;5.714;2023-05-02T07:18:48;18.50;61.10
10121;DHT22;5100;45.176;5.714;2023-05-02T07:21:14;18.50;60.90
10121;DHT22;5100;45.176;5.714;2023-05-02T07:23:40;18.50;60.90
10121;DHT22;5100;45.176;5.714;2023-05-02T07:26:06;18.50;61.10
10121;DHT22;5100;45.176;5.714;2023-05-02T07:28:32;18.50;61.20
10121;DHT22;5100;45.176;5.714;2023-05-02T07:30:58;18.50;60.90
10121;DHT22;5100;45.176;5.714;2023-05-02T07:33:24;18.50;61.10
10121;DHT22;5100;45.176;5.714;2023-05-02T07:35:50;18.50;61.10
10121;DHT22;5100;45.176;5.714;2023-05-02T07:38:17;18.50;61.30
10121;DHT22;5100;45.176;5.714;2023-05-02T07:40:43;18.50;61.70
10121;DHT22;5100;45.176;5.714;2023-05-02T07:43:09;18.50;61.30
10121;DHT22;5100;45.176;5.714;2023-05-02T07:45:35;18.50;61.40
10121;DHT22;5100;45.176;5.714;2023-05-02T07:48:02;18.50;61.20
10121;DHT22;5100;45.176;5.714;2023-05-02T07:50:28;18.50;60.90
10121;DHT22;5100;45.176;5.714;2023-05-02T07:52:55;18.40;61.00
10121;DHT22;5100;45.176;5.714;2023-05-02T07:55:21;18.50;61.30
10121;DHT22;5100;45.176;5.714;2023-05-02T07:57:47;18.50;61.20
10121;DHT22;5100;45.176;5.714;2023-05-02T08:00:13;18.50;61.30
10121;DHT22;5100;45.176;5.714;2023-05-02T08:02:41;18.50;61.30
10121;DHT22;5100;45.176;5.714;2023-05-02T08:05:07;18.50;61.30
10121;DHT22;5100;45.176;5.714;2023-05-02T08:07:33;18.50;61.40
10121;DHT22;5100;45.176;5.714;2023-05-02T08:10:00;18.50;61.30
10121;DHT22;5100;45.176;5.714;2023-05-02T08:12:26;18.50;61.10
10121;DHT22;5100;45.176;5.714;2023-05-02T08:14:53;18.50;61.30
10121;DHT22;5100;45.176;5.714;2023-05-02T08:17:19;18.50;61.00
10121;DHT22;5100;45.176;5.714;2023-05-02T08:19:46;18.60;61.10
10121;DHT22;5100;45.176;5.714;2023-05-02T08:22:12;18.60;60.90
10121;DHT22;5100;45.176;5.714;2023-05-02T08:24:39;18.60;60.80
10121;DHT22;5100;45.176;5.714;2023-05-02T08:27:04;18.70;60.90
10121;DHT22;5100;45.176;5.714;2023-05-02T08:29:31;18.70;60.90
10121;DHT22;5100;45.176;5.714;2023-05-02T08:31:57;18.70;60.70
10121;DHT22;5100;45.176;5.714;2023-05-02T08:34:23;18.80;60.90
10121;DHT22;5100;45.176;5.714;2023-05-02T08:36:49;18.80;60.80
10121;DHT22;5100;45.176;5.714;2023-05-02T08:39:15;18.80;60.50
10121;DHT22;5100;45.176;5.714;2023-05-02T08:41:42;18.80;60.50
10121;DHT22;5100;45.176;5.714;2023-05-02T08:44:11;18.80;60.60
10121;DHT22;5100;45.176;5.714;2023-05-02T08:46:40;18.80;60.60
10121;DHT22;5100;45.176;5.714;2023-05-02T08:49:06;18.80;60.50
10121;DHT22;5100;45.176;5.714;2023-05-02T08:51:35;18.90;60.70
10121;DHT22;5100;45.176;5.714;2023-05-02T08:54:02;18.90;60.50
10121;DHT22;5100;45.176;5.714;2023-05-02T08:56:29;18.90;60.60
10121;DHT22;5100;45.176;5.714;2023-05-02T08:58:54;18.90;60.60
10121;DHT22;5100;45.176;5.714;2023-05-02T09:01:30;18.90;60.20
10121;DHT22;5100;45.176;5.714;2023-05-02T09:03:57;19.00;59.90
10121;DHT22;5100;45.176;5.714;2023-05-02T09:06:25;19.00;60.00
10121;DHT22;5100;45.176;5.714;2023-05-02T09:08:51;19.10;59.70
10121;DHT22;5100;45.176;5.714;2023-05-02T09:11:18;19.10;59.80
10121;DHT22;5100;45.176;5.714;2023-05-02T09:13:46;19.10;59.50
10121;DHT22;5100;45.176;5.714;2023-05-02T09:16:20;19.20;59.50
10121;DHT22;5100;45.176;5.714;2023-05-02T09:21:21;19.20;59.40
10121;DHT22;5100;45.176;5.714;2023-05-02T09:23:50;19.20;59.40
10121;DHT22;5100;45.176;5.714;2023-05-02T09:28:55;19.20;59.30
10121;DHT22;5100;45.176;5.714;2023-05-02T09:31:30;19.20;59.40
10121;DHT22;5100;45.176;5.714;2023-05-02T09:34:09;19.20;59.40
10121;DHT22;5100;45.176;5.714;2023-05-02T09:36:41;19.20;59.20
10121;DHT22;5100;45.176;5.714;2023-05-02T09:39:15;19.20;59.20
10121;DHT22;5100;45.176;5.714;2023-05-02T09:41:43;19.20;59.20
10121;DHT22;5100;45.176;5.714;2023-05-02T09:44:11;19.20;59.20
10121;DHT22;5100;45.176;5.714;2023-05-02T09:49:07;19.20;59.30
10121;DHT22;5100;45.176;5.714;2023-05-02T09:51:34;19.20;59.10
10121;DHT22;5100;45.176;5.714;2023-05-02T09:54:01;19.20;59.30
10121;DHT22;5100;45.176;5.714;2023-05-02T09:56:27;19.20;59.10
10121;DHT22;5100;45.176;5.714;2023-05-02T09:59:15;19.20;59.20
10121;DHT22;5100;45.176;5.714;2023-05-02T10:01:42;19.20;59.30
10121;DHT22;5100;45.176;5.714;2023-05-02T10:04:11;19.20;59.30
10121;DHT22;5100;45.176;5.714;2023-05-02T10:06:44;19.20;59.40
10121;DHT22;5100;45.176;5.714;2023-05-02T10:09:14;19.30;59.20
10121;DHT22;5100;45.176;5.714;2023-05-02T10:11:43;19.30;59.30
10121;DHT22;5100;45.176;5.714;2023-05-02T10:14:10;19.30;59.30
10121;DHT22;5100;45.176;5.714;2023-05-02T10:16:51;19.30;59.10
10121;DHT22;5100;45.176;5.714;2023-05-02T10:19:23;19.30;59.10
10121;DHT22;5100;45.176;5.714;2023-05-02T10:21:52;19.30;59.20
10121;DHT22;5100;45.176;5.714;2023-05-02T10:24:20;19.40;59.40
10121;DHT22;5100;45.176;5.714;2023-05-02T10:26:49;19.40;59.20
10121;DHT22;5100;45.176;5.714;2023-05-02T10:29:16;19.40;58.90
10121;DHT22;5100;45.176;5.714;2023-05-02T10:31:42;19.40;59.00
10121;DHT22;5100;45.176;5.714;2023-05-02T10:34:10;19.40;59.00
10121;DHT22;5100;45.176;5.714;2023-05-02T10:36:36;19.40;58.90
10121;DHT22;5100;45.176;5.714;2023-05-02T10:39:02;19.40;58.90
10121;DHT22;5100;45.176;5.714;2023-05-02T10:41:30;19.40;59.00
10121;DHT22;5100;45.176;5.714;2023-05-02T10:43:58;19.40;58.90
10121;DHT22;5100;45.176;5.714;2023-05-02T10:46:35;19.40;58.90
10121;DHT22;5100;45.176;5.714;2023-05-02T10:49:10;19.40;59.00
10121;DHT22;5100;45.176;5.714;2023-05-02T10:51:41;19.40;59.00
10121;DHT22;5100;45.176;5.714;2023-05-02T10:59:28;19.50;59.10
10121;DHT22;5100;45.176;5.714;2023-05-02T11:01:55;19.50;59.20
10121;DHT22;5100;45.176;5.714;2023-05-02T11:04:22;19.50;59.10
10121;DHT22;5100;45.176;5.714;2023-05-02T11:11:50;19.60;58.70
10121;DHT22;5100;45.176;5.714;2023-05-02T11:24:46;19.60;58.60
10121;DHT22;5100;45.176;5.714;2023-05-02T11:29:56;19.70;58.50
10121;DHT22;5100;45.176;5.714;2023-05-02T11:32:23;19.70;58.40
10121;DHT22;5100;45.176;5.714;2023-05-02T11:34:50;19.70;58.60
10121;DHT22;5100;45.176;5.714;2023-05-02T11:37:19;19.70;58.60
10121;DHT22;5100;45.176;5.714;2023-05-02T11:39:46;19.80;58.80
10121;DHT22;5100;45.176;5.714;2023-05-02T11:42:32;19.80;58.80
10121;DHT22;5100;45.176;5.714;2023-05-02T11:44:59;19.80;58.80
10121;DHT22;5100;45.176;5.714;2023-05-02T11:47:26;19.90;58.60
10121;DHT22;5100;45.176;5.714;2023-05-02T11:49:55;19.90;58.60
10121;DHT22;5100;45.176;5.714;2023-05-02T11:52:22;19.90;58.50
10121;DHT22;5100;45.176;5.714;2023-05-02T11:54:52;20.00;58.40
10121;DHT22;5100;45.176;5.714;2023-05-02T11:57:18;20.00;57.70
10121;DHT22;5100;45.176;5.714;2023-05-02T11:59:56;20.00;57.60
10121;DHT22;5100;45.176;5.714;2023-05-02T12:02:39;20.10;57.60
10121;DHT22;5100;45.176;5.714;2023-05-02T12:05:07;20.10;57.30
10121;DHT22;5100;45.176;5.714;2023-05-02T12:07:37;20.20;57.20
10121;DHT22;5100;45.176;5.714;2023-05-02T12:10:05;20.20;57.10
10121;DHT22;5100;45.176;5.714;2023-05-02T12:12:32;20.20;57.00
10121;DHT22;5100;45.176;5.714;2023-05-02T12:15:02;20.30;56.80
10121;DHT22;5100;45.176;5.714;2023-05-02T12:17:29;20.30;57.00
10121;DHT22;5100;45.176;5.714;2023-05-02T12:19:55;20.40;56.90
10121;DHT22;5100;45.176;5.714;2023-05-02T12:22:23;20.40;57.20
10121;DHT22;5100;45.176;5.714;2023-05-02T12:24:50;20.40;57.40
10121;DHT22;5100;45.176;5.714;2023-05-02T12:27:19;20.50;57.00
10121;DHT22;5100;45.176;5.714;2023-05-02T12:29:46;20.50;56.70
10121;DHT22;5100;45.176;5.714;2023-05-02T12:32:13;20.50;56.30
10121;DHT22;5100;45.176;5.714;2023-05-02T12:34:40;20.50;56.20
10121;DHT22;5100;45.176;5.714;2023-05-02T12:37:07;20.60;55.90
10121;DHT22;5100;45.176;5.714;2023-05-02T12:39:42;20.60;55.70
10121;DHT22;5100;45.176;5.714;2023-05-02T12:42:12;20.60;55.60
10121;DHT22;5100;45.176;5.714;2023-05-02T12:44:40;20.60;55.50
10121;DHT22;5100;45.176;5.714;2023-05-02T12:47:08;20.60;55.80
10121;DHT22;5100;45.176;5.714;2023-05-02T12:52:18;20.70;55.40
10121;DHT22;5100;45.176;5.714;2023-05-02T12:54:45;20.70;55.20
10121;DHT22;5100;45.176;5.714;2023-05-02T12:57:24;20.70;55.20
10121;DHT22;5100;45.176;5.714;2023-05-02T12:59:52;20.70;55.10
10121;DHT22;5100;45.176;5.714;2023-05-02T13:02:19;20.70;55.10
10121;DHT22;5100;45.176;5.714;2023-05-02T13:04:45;20.70;55.00
10121;DHT22;5100;45.176;5.714;2023-05-02T13:07:12;20.70;55.30
10121;DHT22;5100;45.176;5.714;2023-05-02T13:09:38;20.70;55.20
10121;DHT22;5100;45.176;5.714;2023-05-02T13:12:04;20.80;55.30
10121;DHT22;5100;45.176;5.714;2023-05-02T13:14:31;20.80;55.30
10121;DHT22;5100;45.176;5.714;2023-05-02T13:16:57;20.80;55.10
10121;DHT22;5100;45.176;5.714;2023-05-02T13:19:23;20.80;55.20
10121;DHT22;5100;45.176;5.714;2023-05-02T13:21:50;20.80;55.60
10121;DHT22;5100;45.176;5.714;2023-05-02T13:24:16;20.80;55.30
10121;DHT22;5100;45.176;5.714;2023-05-02T13:26:42;20.80;54.70
10121;DHT22;5100;45.176;5.714;2023-05-02T13:29:08;20.90;54.30
10121;DHT22;5100;45.176;5.714;2023-05-02T13:31:37;20.90;54.20
10121;DHT22;5100;45.176;5.714;2023-05-02T13:34:03;20.90;53.70
10121;DHT22;5100;45.176;5.714;2023-05-02T13:36:30;21.00;53.40
10121;DHT22;5100;45.176;5.714;2023-05-02T13:38:56;21.00;53.50
10121;DHT22;5100;45.176;5.714;2023-05-02T13:41:22;21.00;53.90
10121;DHT22;5100;45.176;5.714;2023-05-02T13:43:51;21.00;53.80
10121;DHT22;5100;45.176;5.714;2023-05-02T13:46:18;21.10;53.80
10121;DHT22;5100;45.176;5.714;2023-05-02T13:48:43;21.10;54.20
10121;DHT22;5100;45.176;5.714;2023-05-02T13:51:10;21.10;54.70
10121;DHT22;5100;45.176;5.714;2023-05-02T13:53:36;21.20;55.20
10121;DHT22;5100;45.176;5.714;2023-05-02T13:56:03;21.20;55.40
10121;DHT22;5100;45.176;5.714;2023-05-02T13:58:29;21.20;55.40
10121;DHT22;5100;45.176;5.714;2023-05-02T14:00:55;21.20;55.30
10121;DHT22;5100;45.176;5.714;2023-05-02T14:03:22;21.30;54.90
10121;DHT22;5100;45.176;5.714;2023-05-02T14:05:48;21.30;55.10
10121;DHT22;5100;45.176;5.714;2023-05-02T14:08:14;21.40;54.90
10121;DHT22;5100;45.176;5.714;2023-05-02T14:10:43;21.40;54.90
10121;DHT22;5100;45.176;5.714;2023-05-02T14:13:09;21.40;55.00
10121;DHT22;5100;45.176;5.714;2023-05-02T14:15:35;21.50;55.20
10121;DHT22;5100;45.176;5.714;2023-05-02T14:18:02;21.50;55.10
10121;DHT22;5100;45.176;5.714;2023-05-02T14:20:28;21.50;55.10
10121;DHT22;5100;45.176;5.714;2023-05-02T14:22:54;21.50;55.00
10121;DHT22;5100;45.176;5.714;2023-05-02T14:25:21;21.60;54.80
10121;DHT22;5100;45.176;5.714;2023-05-02T14:27:46;21.60;54.70
10121;DHT22;5100;45.176;5.714;2023-05-02T14:30:12;21.60;54.40
10121;DHT22;5100;45.176;5.714;2023-05-02T14:32:39;21.60;54.70
10121;DHT22;5100;45.176;5.714;2023-05-02T14:35:05;21.70;54.40
10121;DHT22;5100;45.176;5.714;2023-05-02T14:37:31;21.70;53.80
10121;DHT22;5100;45.176;5.714;2023-05-02T14:39:58;21.70;53.70
10121;DHT22;5100;45.176;5.714;2023-05-02T14:42:24;21.70;53.20
10121;DHT22;5100;45.176;5.714;2023-05-02T14:44:50;21.80;53.00
10121;DHT22;5100;45.176;5.714;2023-05-02T14:47:17;21.80;52.20
10121;DHT22;5100;45.176;5.714;2023-05-02T14:49:43;21.80;52.10
10121;DHT22;5100;45.176;5.714;2023-05-02T14:52:09;21.90;52.60
10121;DHT22;5100;45.176;5.714;2023-05-02T14:54:35;21.90;52.50
10121;DHT22;5100;45.176;5.714;2023-05-02T14:57:02;21.90;53.00
10121;DHT22;5100;45.176;5.714;2023-05-02T14:59:29;21.90;53.40
10121;DHT22;5100;45.176;5.714;2023-05-02T15:01:55;21.90;53.50
10121;DHT22;5100;45.176;5.714;2023-05-02T15:04:22;22.00;52.80
10121;DHT22;5100;45.176;5.714;2023-05-02T15:06:48;22.00;52.60
10121;DHT22;5100;45.176;5.714;2023-05-02T15:09:18;22.00;52.60
10121;DHT22;5100;45.176;5.714;2023-05-02T15:11:44;22.00;52.70
10121;DHT22;5100;45.176;5.714;2023-05-02T15:14:10;22.00;52.30
10121;DHT22;5100;45.176;5.714;2023-05-02T15:16:37;22.00;52.80
10121;DHT22;5100;45.176;5.714;2023-05-02T15:19:04;22.00;52.80
10121;DHT22;5100;45.176;5.714;2023-05-02T15:21:30;22.00;52.70
10121;DHT22;5100;45.176;5.714;2023-05-02T15:23:57;22.00;53.00
10121;DHT22;5100;45.176;5.714;2023-05-02T15:26:23;22.00;53.20
10121;DHT22;5100;45.176;5.714;2023-05-02T15:28:50;22.00;53.40
10121;DHT22;5100;45.176;5.714;2023-05-02T15:31:17;21.90;52.90
10121;DHT22;5100;45.176;5.714;2023-05-02T15:33:43;21.90;51.20
10121;DHT22;5100;45.176;5.714;2023-05-02T15:36:09;21.90;51.70
10121;DHT22;5100;45.176;5.714;2023-05-02T15:38:35;21.90;50.10
10121;DHT22;5100;45.176;5.714;2023-05-02T15:41:04;21.90;48.40
10121;DHT22;5100;45.176;5.714;2023-05-02T15:43:31;21.90;47.70
10121;DHT22;5100;45.176;5.714;2023-05-02T15:45:59;21.90;48.90
10121;DHT22;5100;45.176;5.714;2023-05-02T15:48:31;21.90;49.30
10121;DHT22;5100;45.176;5.714;2023-05-02T15:50:58;21.90;48.90
10121;DHT22;5100;45.176;5.714;2023-05-02T15:53:24;21.90;48.20
10121;DHT22;5100;45.176;5.714;2023-05-02T15:55:50;21.90;47.30
10121;DHT22;5100;45.176;5.714;2023-05-02T15:58:17;21.90;46.50
10121;DHT22;5100;45.176;5.714;2023-05-02T16:00:44;21.90;46.20
10121;DHT22;5100;45.176;5.714;2023-05-02T16:03:11;21.90;45.80
10121;DHT22;5100;45.176;5.714;2023-05-02T16:05:38;21.90;45.50
10121;DHT22;5100;45.176;5.714;2023-05-02T16:08:04;21.90;45.90
10121;DHT22;5100;45.176;5.714;2023-05-02T16:10:31;21.90;45.30
10121;DHT22;5100;45.176;5.714;2023-05-02T16:12:57;21.90;45.70
10121;DHT22;5100;45.176;5.714;2023-05-02T16:15:23;21.90;45.40
10121;DHT22;5100;45.176;5.714;2023-05-02T16:17:49;21.90;45.30
10121;DHT22;5100;45.176;5.714;2023-05-02T16:20:16;21.90;45.10
10121;DHT22;5100;45.176;5.714;2023-05-02T16:22:46;21.90;45.30
10121;DHT22;5100;45.176;5.714;2023-05-02T16:25:14;21.90;45.20
10121;DHT22;5100;45.176;5.714;2023-05-02T16:27:41;21.90;45.20
10121;DHT22;5100;45.176;5.714;2023-05-02T16:30:07;21.90;45.20
10121;DHT22;5100;45.176;5.714;2023-05-02T16:32:34;21.90;45.20
10121;DHT22;5100;45.176;5.714;2023-05-02T16:35:05;21.90;44.80
10121;DHT22;5100;45.176;5.714;2023-05-02T16:37:35;21.90;44.80
10121;DHT22;5100;45.176;5.714;2023-05-02T16:40:01;21.90;45.20
10121;DHT22;5100;45.176;5.714;2023-05-02T16:42:30;21.90;45.40
10121;DHT22;5100;45.176;5.714;2023-05-02T16:44:56;21.90;45.10